sensor_id;sensor_type;location;lat;lon;timestamp;temperature;humidity
7700;DHT22;3892;47.794;19.126;2023-11-18T00:00:00;12.50;33.90
7700;DHT22;3892;47.794;19.126;2023-11-18T00:02:31;12.40;33.70
7700;DHT22;3892;47.794;19.126;2023-11-18T00:05:00;12.40;33.80
7700;DHT22;3892;47.794;19.126;2023-11-18T00:07:28;12.50;34.00
7700;DHT22;3892;47.794;19.126;2023-11-18T00:09:58;12.50;34.00
7700;DHT22;3892;47.794;19.126;2023-11-18T00:12:27;12.50;34.00
7700;DHT22;3892;47.794;19.126;2023-11-18T00:14:55;12.50;34.00
7700;DHT22;3892;47.794;19.126;2023-11-18T00:17:23;12.50;34.00
7700;DHT22;3892;47.794;19.126;2023-11-18T00:19:52;12.40;34.00
7700;DHT22;3892;47.794;19.126;2023-11-18T00:22:21;12.40;34.10
7700;DHT22;3892;47.794;19.126;2023-11-18T00:24:49;12.40;34.20
7700;DHT22;3892;47.794;19.126;2023-11-18T00:27:19;12.30;34.20
7700;DHT22;3892;47.794;19.126;2023-11-18T00:29:47;12.30;34.30
7700;DHT22;3892;47.794;19.126;2023-11-18T00:32:15;12.30;34.30
7700;DHT22;3892;47.794;19.126;2023-11-18T00:34:43;12.30;34.20
7700;DHT22;3892;47.794;19.126;2023-11-18T00:37:13;12.40;34.30
7700;DHT22;3892;47.794;19.126;2023-11-18T00:39:41;12.20;34.10
7700;DHT22;3892;47.794;19.126;2023-11-18T00:42:09;12.20;34.30
7700;DHT22;3892;47.794;19.126;2023-11-18T00:44:37;12.10;34.40
7700;DHT22;3892;47.794;19.126;2023-11-18T00:47:05;12.00;34.40
7700;DHT22;3892;47.794;19.126;2023-11-18T00:49:33;12.00;35.10
7700;DHT22;3892;47.794;19.126;2023-11-18T00:52:02;12.00;34.50
7700;DHT22;3892;47.794;19.126;2023-11-18T00:54:32;11.90;34.40
7700;DHT22;3892;47.794;19.126;2023-11-18T00:57:00;11.90;34.50
7700;DHT22;3892;47.794;19.126;2023-11-18T00:59:29;11.80;34.40
7700;DHT22;3892;47.794;19.126;2023-11-18T01:01:57;11.90;34.50
7700;DHT22;3892;47.794;19.126;2023-11-18T01:04:25;11.80;34.50
7700;DHT22;3892;47.794;19.126;2023-11-18T01:06:53;11.80;34.50
7700;DHT22;3892;47.794;19.126;2023-11-18T01:09:21;11.60;34.40
7700;DHT22;3892;47.794;19.126;2023-11-18T01:11:51;11.70;34.50
7700;DHT22;3892;47.794;19.126;2023-11-18T01:14:19;11.70;34.50
7700;DHT22;3892;47.794;19.126;2023-11-18T01:16:49;11.60;34.50
7700;DHT22;3892;47.794;19.126;2023-11-18T01:19:18;11.70;34.60
7700;DHT22;3892;47.794;19.126;2023-11-18T01:21:47;11.70;34.60
7700;DHT22;3892;47.794;19.126;2023-11-18T01:24:15;11.70;34.60
7700;DHT22;3892;47.794;19.126;2023-11-18T01:26:43;11.70;34.60
7700;DHT22;3892;47.794;19.126;2023-11-18T01:29:13;11.70;34.50
7700;DHT22;3892;47.794;19.126;2023-11-18T01:31:41;11.60;34.40
7700;DHT22;3892;47.794;19.126;2023-11-18T01:34:13;11.60;34.50
7700;DHT22;3892;47.794;19.126;2023-11-18T01:36:41;11.60;34.60
7700;DHT22;3892;47.794;19.126;2023-11-18T01:39:10;11.60;34.70
7700;DHT22;3892;47.794;19.126;2023-11-18T01:41:39;11.60;35.20
7700;DHT22;3892;47.794;19.126;2023-11-18T01:44:07;11.60;34.70
7700;DHT22;3892;47.794;19.126;2023-11-18T01:46:37;11.50;34.60
7700;DHT22;3892;47.794;19.126;2023-11-18T01:49:05;11.50;34.70
7700;DHT22;3892;47.794;19.126;2023-11-18T01:51:34;11.50;34.70
7700;DHT22;3892;47.794;19.126;2023-11-18T01:54:04;11.50;34.70
7700;DHT22;3892;47.794;19.126;2023-11-18T01:56:33;11.50;34.80
7700;DHT22;3892;47.794;19.126;2023-11-18T01:59:01;11.50;34.70
7700;DHT22;3892;47.794;19.126;2023-11-18T02:01:31;11.60;34.90
7700;DHT22;3892;47.794;19.126;2023-11-18T02:04:02;11.70;34.90
7700;DHT22;3892;47.794;19.126;2023-11-18T02:06:32;11.70;34.90
7700;DHT22;3892;47.794;19.126;2023-11-18T02:09:00;11.70;34.80
7700;DHT22;3892;47.794;19.126;2023-11-18T02:11:33;11.70;34.80
7700;DHT22;3892;47.794;19.126;2023-11-18T02:14:08;11.70;34.80
7700;DHT22;3892;47.794;19.126;2023-11-18T02:16:40;11.70;34.60
7700;DHT22;3892;47.794;19.126;2023-11-18T02:19:18;11.70;34.50
7700;DHT22;3892;47.794;19.126;2023-11-18T02:21:48;11.60;34.60
7700;DHT22;3892;47.794;19.126;2023-11-18T02:24:26;11.70;34.80
7700;DHT22;3892;47.794;19.126;2023-11-18T02:26:59;11.70;34.80
7700;DHT22;3892;47.794;19.126;2023-11-18T02:29:32;11.70;34.80
7700;DHT22;3892;47.794;19.126;2023-11-18T02:32:08;11.60;34.70
7700;DHT22;3892;47.794;19.126;2023-11-18T02:34:42;11.60;34.70
7700;DHT22;3892;47.794;19.126;2023-11-18T02:37:15;11.60;34.90
7700;DHT22;3892;47.794;19.126;2023-11-18T02:39:45;11.60;34.80
7700;DHT22;3892;47.794;19.126;2023-11-18T02:42:17;11.60;34.80
7700;DHT22;3892;47.794;19.126;2023-11-18T02:44:50;11.60;34.90
7700;DHT22;3892;47.794;19.126;2023-11-18T02:47:26;11.60;34.90
7700;DHT22;3892;47.794;19.126;2023-11-18T02:49:55;11.60;34.80
7700;DHT22;3892;47.794;19.126;2023-11-18T02:52:33;11.60;34.90
7700;DHT22;3892;47.794;19.126;2023-11-18T02:55:01;11.60;34.90
7700;DHT22;3892;47.794;19.126;2023-11-18T02:57:31;11.60;34.80
7700;DHT22;3892;47.794;19.126;2023-11-18T02:59:59;11.60;34.80
7700;DHT22;3892;47.794;19.126;2023-11-18T03:02:28;11.60;34.80
7700;DHT22;3892;47.794;19.126;2023-11-18T03:04:56;11.60;34.80
7700;DHT22;3892;47.794;19.126;2023-11-18T03:07:25;11.70;34.80
7700;DHT22;3892;47.794;19.126;2023-11-18T03:09:53;11.70;34.60
7700;DHT22;3892;47.794;19.126;2023-11-18T03:12:23;11.70;34.50
7700;DHT22;3892;47.794;19.126;2023-11-18T03:14:55;11.80;34.30
7700;DHT22;3892;47.794;19.126;2023-11-18T03:17:24;11.80;34.10
7700;DHT22;3892;47.794;19.126;2023-11-18T03:19:52;11.80;34.00
7700;DHT22;3892;47.794;19.126;2023-11-18T03:22:21;11.80;34.00
7700;DHT22;3892;47.794;19.126;2023-11-18T03:24:49;11.80;33.90
7700;DHT22;3892;47.794;19.126;2023-11-18T03:27:17;11.80;34.10
7700;DHT22;3892;47.794;19.126;2023-11-18T03:29:46;11.70;34.30
7700;DHT22;3892;47.794;19.126;2023-11-18T03:32:16;11.70;34.50
7700;DHT22;3892;47.794;19.126;2023-11-18T03:34:44;11.60;34.70
7700;DHT22;3892;47.794;19.126;2023-11-18T03:37:12;11.60;34.90
7700;DHT22;3892;47.794;19.126;2023-11-18T03:39:41;11.70;35.00
7700;DHT22;3892;47.794;19.126;2023-11-18T03:42:09;11.70;35.00
7700;DHT22;3892;47.794;19.126;2023-11-18T03:44:37;11.60;34.80
7700;DHT22;3892;47.794;19.126;2023-11-18T03:47:05;11.60;34.90
7700;DHT22;3892;47.794;19.126;2023-11-18T03:49:35;11.60;34.90
7700;DHT22;3892;47.794;19.126;2023-11-18T03:52:03;11.60;35.00
7700;DHT22;3892;47.794;19.126;2023-11-18T03:54:32;11.60;35.10
7700;DHT22;3892;47.794;19.126;2023-11-18T03:57:00;11.60;35.10
7700;DHT22;3892;47.794;19.126;2023-11-18T03:59:29;11.60;35.10
7700;DHT22;3892;47.794;19.126;2023-11-18T04:01:57;11.60;35.10
7700;DHT22;3892;47.794;19.126;2023-11-18T04:04:25;11.60;35.20
7700;DHT22;3892;47.794;19.126;2023-11-18T04:06:55;11.60;35.20
7700;DHT22;3892;47.794;19.126;2023-11-18T04:09:23;11.60;35.20
7700;DHT22;3892;47.794;19.126;2023-11-18T04:11:53;11.60;35.30
7700;DHT22;3892;47.794;19.126;2023-11-18T04:14:21;11.60;35.30
7700;DHT22;3892;47.794;19.126;2023-11-18T04:16:49;11.60;35.40
7700;DHT22;3892;47.794;19.126;2023-11-18T04:19:17;11.50;35.20
7700;DHT22;3892;47.794;19.126;2023-11-18T04:21:46;11.50;35.90
7700;DHT22;3892;47.794;19.126;2023-11-18T04:24:17;11.40;35.40
7700;DHT22;3892;47.794;19.126;2023-11-18T04:26:45;11.40;35.60
7700;DHT22;3892;47.794;19.126;2023-11-18T04:29:15;11.40;35.60
7700;DHT22;3892;47.794;19.126;2023-11-18T04:31:43;11.50;35.60
7700;DHT22;3892;47.794;19.126;2023-11-18T04:34:11;11.50;35.40
7700;DHT22;3892;47.794;19.126;2023-11-18T04:36:41;11.50;35.30
7700;DHT22;3892;47.794;19.126;2023-11-18T04:39:09;11.60;35.50
7700;DHT22;3892;47.794;19.126;2023-11-18T04:41:40;11.60;35.50
7700;DHT22;3892;47.794;19.126;2023-11-18T04:44:08;11.70;35.60
7700;DHT22;3892;47.794;19.126;2023-11-18T04:46:36;11.80;35.70
7700;DHT22;3892;47.794;19.126;2023-11-18T04:49:05;11.80;35.50
7700;DHT22;3892;47.794;19.126;2023-11-18T04:51:34;11.70;35.50
7700;DHT22;3892;47.794;19.126;2023-11-18T04:54:02;11.80;35.70
7700;DHT22;3892;47.794;19.126;2023-11-18T04:56:30;11.80;35.70
7700;DHT22;3892;47.794;19.126;2023-11-18T04:59:00;11.70;35.50
7700;DHT22;3892;47.794;19.126;2023-11-18T05:01:28;11.80;35.50
7700;DHT22;3892;47.794;19.126;2023-11-18T05:03:56;11.70;35.40
7700;DHT22;3892;47.794;19.126;2023-11-18T05:06:26;11.80;35.30
7700;DHT22;3892;47.794;19.126;2023-11-18T05:08:54;11.70;35.10
7700;DHT22;3892;47.794;19.126;2023-11-18T05:11:22;11.60;35.00
7700;DHT22;3892;47.794;19.126;2023-11-18T05:13:50;11.60;35.30
7700;DHT22;3892;47.794;19.126;2023-11-18T05:16:19;11.60;35.40
7700;DHT22;3892;47.794;19.126;2023-11-18T05:18:47;11.60;35.50
7700;DHT22;3892;47.794;19.126;2023-11-18T05:21:16;11.60;36.20
7700;DHT22;3892;47.794;19.126;2023-11-18T05:23:44;11.60;35.60
7700;DHT22;3892;47.794;19.126;2023-11-18T05:26:12;11.70;35.70
7700;DHT22;3892;47.794;19.126;2023-11-18T05:28:40;11.70;35.60
7700;DHT22;3892;47.794;19.126;2023-11-18T05:31:11;11.60;35.70
7700;DHT22;3892;47.794;19.126;2023-11-18T05:33:40;11.60;35.90
7700;DHT22;3892;47.794;19.126;2023-11-18T05:36:08;11.60;35.80
7700;DHT22;3892;47.794;19.126;2023-11-18T05:38:38;11.60;35.60
7700;DHT22;3892;47.794;19.126;2023-11-18T05:41:06;11.60;35.40
7700;DHT22;3892;47.794;19.126;2023-11-18T05:43:43;11.60;35.50
7700;DHT22;3892;47.794;19.126;2023-11-18T05:46:18;11.60;35.70
7700;DHT22;3892;47.794;19.126;2023-11-18T05:48:51;11.50;35.80
7700;DHT22;3892;47.794;19.126;2023-11-18T05:51:20;11.50;36.00
7700;DHT22;3892;47.794;19.126;2023-11-18T05:53:49;11.50;36.20
7700;DHT22;3892;47.794;19.126;2023-11-18T05:56:19;11.50;36.30
7700;DHT22;3892;47.794;19.126;2023-11-18T05:58:49;11.50;36.30
7700;DHT22;3892;47.794;19.126;2023-11-18T06:01:17;11.50;36.40
7700;DHT22;3892;47.794;19.126;2023-11-18T06:03:45;11.50;36.40
7700;DHT22;3892;47.794;19.126;2023-11-18T06:06:15;11.50;36.40
7700;DHT22;3892;47.794;19.126;2023-11-18T06:08:45;11.50;36.40
7700;DHT22;3892;47.794;19.126;2023-11-18T06:11:15;11.50;36.50
7700;DHT22;3892;47.794;19.126;2023-11-18T06:13:47;11.50;36.50
7700;DHT22;3892;47.794;19.126;2023-11-18T06:16:16;11.50;36.50
7700;DHT22;3892;47.794;19.126;2023-11-18T06:18:48;11.50;36.20
7700;DHT22;3892;47.794;19.126;2023-11-18T06:21:19;11.60;36.10
7700;DHT22;3892;47.794;19.126;2023-11-18T06:23:51;11.60;36.10
7700;DHT22;3892;47.794;19.126;2023-11-18T06:26:21;11.50;36.00
7700;DHT22;3892;47.794;19.126;2023-11-18T06:28:51;11.60;36.70
7700;DHT22;3892;47.794;19.126;2023-11-18T06:31:19;11.60;36.00
7700;DHT22;3892;47.794;19.126;2023-11-18T06:33:47;11.60;36.00
7700;DHT22;3892;47.794;19.126;2023-11-18T06:36:20;11.70;36.10
7700;DHT22;3892;47.794;19.126;2023-11-18T06:38:50;11.60;36.00
7700;DHT22;3892;47.794;19.126;2023-11-18T06:41:19;11.60;36.10
7700;DHT22;3892;47.794;19.126;2023-11-18T06:43:49;11.70;36.20
7700;DHT22;3892;47.794;19.126;2023-11-18T06:46:24;11.70;36.20
7700;DHT22;3892;47.794;19.126;2023-11-18T06:48:54;11.60;36.30
7700;DHT22;3892;47.794;19.126;2023-11-18T06:51:24;11.50;36.40
7700;DHT22;3892;47.794;19.126;2023-11-18T06:53:54;11.50;37.10
7700;DHT22;3892;47.794;19.126;2023-11-18T06:56:23;11.40;36.40
7700;DHT22;3892;47.794;19.126;2023-11-18T06:58:51;11.30;36.30
7700;DHT22;3892;47.794;19.126;2023-11-18T07:01:19;11.40;36.50
7700;DHT22;3892;47.794;19.126;2023-11-18T07:03:48;11.50;37.20
7700;DHT22;3892;47.794;19.126;2023-11-18T07:06:20;11.40;36.60
7700;DHT22;3892;47.794;19.126;2023-11-18T07:08:52;11.50;36.60
7700;DHT22;3892;47.794;19.126;2023-11-18T07:11:21;11.60;36.50
7700;DHT22;3892;47.794;19.126;2023-11-18T07:13:49;11.70;36.30
7700;DHT22;3892;47.794;19.126;2023-11-18T07:16:23;11.60;36.00
7700;DHT22;3892;47.794;19.126;2023-11-18T07:18:52;11.50;36.10
7700;DHT22;3892;47.794;19.126;2023-11-18T07:21:19;11.60;36.20
7700;DHT22;3892;47.794;19.126;2023-11-18T07:23:47;11.60;36.10
7700;DHT22;3892;47.794;19.126;2023-11-18T07:26:17;11.60;36.10
7700;DHT22;3892;47.794;19.126;2023-11-18T07:28:45;11.60;36.00
7700;DHT22;3892;47.794;19.126;2023-11-18T07:31:13;11.60;35.90
7700;DHT22;3892;47.794;19.126;2023-11-18T07:33:41;11.70;36.00
7700;DHT22;3892;47.794;19.126;2023-11-18T07:36:11;11.70;35.80
7700;DHT22;3892;47.794;19.126;2023-11-18T07:38:39;11.70;35.70
7700;DHT22;3892;47.794;19.126;2023-11-18T07:41:07;11.80;35.80
7700;DHT22;3892;47.794;19.126;2023-11-18T07:43:37;11.80;35.80
7700;DHT22;3892;47.794;19.126;2023-11-18T07:46:07;11.80;35.60
7700;DHT22;3892;47.794;19.126;2023-11-18T07:48:35;11.90;35.50
7700;DHT22;3892;47.794;19.126;2023-11-18T07:51:04;11.90;35.50
7700;DHT22;3892;47.794;19.126;2023-11-18T07:53:33;11.90;35.40
7700;DHT22;3892;47.794;19.126;2023-11-18T07:56:03;11.90;35.40
7700;DHT22;3892;47.794;19.126;2023-11-18T07:58:34;11.90;35.70
7700;DHT22;3892;47.794;19.126;2023-11-18T08:01:05;11.90;35.50
7700;DHT22;3892;47.794;19.126;2023-11-18T08:03:34;11.90;35.50
7700;DHT22;3892;47.794;19.126;2023-11-18T08:06:04;11.90;35.70
7700;DHT22;3892;47.794;19.126;2023-11-18T08:08:33;12.00;35.60
7700;DHT22;3892;47.794;19.126;2023-11-18T08:11:03;12.00;35.40
7700;DHT22;3892;47.794;19.126;2023-11-18T08:13:31;12.00;35.30
7700;DHT22;3892;47.794;19.126;2023-11-18T08:16:00;12.10;35.50
7700;DHT22;3892;47.794;19.126;2023-11-18T08:18:29;12.10;35.20
7700;DHT22;3892;47.794;19.126;2023-11-18T08:20:58;12.10;35.20
7700;DHT22;3892;47.794;19.126;2023-11-18T08:23:27;12.20;35.00
7700;DHT22;3892;47.794;19.126;2023-11-18T08:25:56;12.20;35.10
7700;DHT22;3892;47.794;19.126;2023-11-18T08:28:24;12.30;35.10
7700;DHT22;3892;47.794;19.126;2023-11-18T08:30:52;12.40;35.10
7700;DHT22;3892;47.794;19.126;2023-11-18T08:33:21;12.40;35.00
7700;DHT22;3892;47.794;19.126;2023-11-18T08:35:52;12.50;35.10
7700;DHT22;3892;47.794;19.126;2023-11-18T08:38:20;12.60;34.60
7700;DHT22;3892;47.794;19.126;2023-11-18T08:40:48;12.70;34.50
7700;DHT22;3892;47.794;19.126;2023-11-18T08:43:18;12.80;34.50
7700;DHT22;3892;47.794;19.126;2023-11-18T08:45:47;13.10;34.70
7700;DHT22;3892;47.794;19.126;2023-11-18T08:48:16;13.40;34.70
7700;DHT22;3892;47.794;19.126;2023-11-18T08:50:45;13.80;34.40
